Time;durP1;ratioP1;P1;durP2;ratioP2;P2;SDS_P1;SDS_P2;PMS_P1;PMS_P2;Temp;Humidity;BMP_temperature;BMP_pressure;BME280_temperature;BME280_humidity;BME280_pressure;Samples;Min_cycle;Max_cycle;Signal;HPM_P1;HPM_P2
2022/04/16 00:01:38;;;;;;;6.03;5.03;;;9.60;99.90;;;;;;5026023;28;20024;-72
2022/04/16 00:04:04;;;;;;;7.72;6.07;;;9.40;99.90;;;;;;5043389;28;20541;-73
2022/04/16 00:06:29;;;;;;;6.53;5.30;;;9.30;99.90;;;;;;5033559;28;20052;-71
2022/04/16 00:08:55;;;;;;;5.78;5.13;;;9.30;99.90;;;;;;5025841;28;20034;-72
2022/04/16 00:11:20;;;;;;;7.05;5.68;;;9.30;99.90;;;;;;5043938;28;20029;-73
2022/04/16 00:13:50;;;;;;;6.93;5.90;;;9.30;99.90;;;;;;5044805;28;20025;-71
2022/04/16 00:16:17;;;;;;;7.35;5.80;;;9.20;99.90;;;;;;5009727;28;20471;-72
2022/04/16 00:18:46;;;;;;;6.47;5.55;;;9.30;99.90;;;;;;5029089;28;20022;-72
2022/04/16 00:21:12;;;;;;;8.57;6.22;;;9.40;99.90;;;;;;5025524;28;20033;-72
2022/04/16 00:23:39;;;;;;;7.30;5.45;;;9.30;99.90;;;;;;5026839;28;20440;-72
2022/04/16 00:26:05;;;;;;;7.72;6.07;;;9.30;99.90;;;;;;5027096;28;20471;-72
2022/04/16 00:28:30;;;;;;;6.35;5.28;;;9.30;99.90;;;;;;5029107;28;20035;-72
2022/04/16 00:30:59;;;;;;;8.02;6.15;;;9.30;99.90;;;;;;5026122;28;20040;-72
2022/04/16 00:33:25;;;;;;;6.90;5.80;;;9.30;99.90;;;;;;5029861;28;20029;-72
2022/04/16 00:35:51;;;;;;;7.40;5.93;;;9.20;99.90;;;;;;5045437;28;20025;-72
2022/04/16 00:38:17;;;;;;;8.20;6.30;;;9.20;99.90;;;;;;5024972;28;20044;-73
2022/04/16 00:40:43;;;;;;;8.95;6.22;;;9.10;99.90;;;;;;5011796;28;20025;-73
2022/04/16 00:43:20;;;;;;;9.05;6.32;;;9.10;99.90;;;;;;5006730;28;20025;-73
2022/04/16 00:45:45;;;;;;;8.32;6.82;;;9.10;99.90;;;;;;5013480;28;20030;-73
2022/04/16 00:48:11;;;;;;;8.48;6.90;;;9.00;99.90;;;;;;5038373;28;20030;-73
2022/04/16 00:50:37;;;;;;;8.00;6.20;;;9.10;99.90;;;;;;5023304;28;20037;-73
2022/04/16 00:53:02;;;;;;;9.20;6.65;;;9.00;99.90;;;;;;5032765;28;20530;-74
2022/04/16 00:55:29;;;;;;;8.68;7.10;;;9.10;99.90;;;;;;5039667;28;20021;-74
2022/04/16 00:57:55;;;;;;;7.75;6.65;;;9.10;99.90;;;;;;5039162;28;20104;-72
2022/04/16 01:00:21;;;;;;;9.48;7.60;;;9.10;99.90;;;;;;5036404;28;20112;-72
2022/04/16 01:02:47;;;;;;;7.60;6.38;;;9.00;99.90;;;;;;5044548;28;20456;-72
2022/04/16 01:05:12;;;;;;;7.53;6.55;;;9.00;99.90;;;;;;5015443;28;20108;-72
2022/04/16 01:07:53;;;;;;;8.98;6.80;;;9.00;99.90;;;;;;5032836;28;20053;-72
2022/04/16 01:10:20;;;;;;;7.55;6.70;;;9.00;99.90;;;;;;5039397;28;20032;-72
2022/04/16 01:12:45;;;;;;;8.32;6.68;;;9.10;99.90;;;;;;5036863;28;20022;-72
2022/04/16 01:15:11;;;;;;;8.98;7.03;;;9.10;99.90;;;;;;5032635;28;20441;-73
2022/04/16 01:17:37;;;;;;;8.80;6.65;;;9.20;99.90;;;;;;5032634;28;20022;-73
2022/04/16 01:20:03;;;;;;;8.65;6.75;;;9.20;99.90;;;;;;5029596;28;20068;-73
2022/04/16 01:22:29;;;;;;;7.47;6.25;;;9.20;99.90;;;;;;5050223;28;20078;-72
2022/04/16 01:24:55;;;;;;;7.28;6.35;;;9.10;99.90;;;;;;5046024;28;20025;-72
2022/04/16 01:27:20;;;;;;;8.07;6.80;;;9.10;99.90;;;;;;5044218;28;20474;-72
2022/04/16 01:29:47;;;;;;;8.15;6.88;;;9.20;99.90;;;;;;5018615;28;20609;-72
2022/04/16 01:32:13;;;;;;;8.52;6.95;;;9.20;99.90;;;;;;5029407;28;20494;-72
2022/04/16 01:34:40;;;;;;;8.60;7.28;;;9.10;99.90;;;;;;5031611;28;20034;-72
2022/04/16 01:37:05;;;;;;;9.95;7.40;;;9.10;99.90;;;;;;5038784;28;20490;-72
2022/04/16 01:39:31;;;;;;;8.77;7.13;;;9.00;99.90;;;;;;5043799;28;20108;-72
2022/04/16 01:41:58;;;;;;;8.73;7.80;;;9.20;99.90;;;;;;5038334;28;20116;-72
2022/04/16 01:44:24;;;;;;;8.02;7.18;;;9.00;99.90;;;;;;5025096;28;20017;-72
2022/04/16 01:46:49;;;;;;;8.57;7.07;;;8.90;99.90;;;;;;5020245;28;20028;-72
2022/04/16 01:49:15;;;;;;;8.77;7.43;;;9.00;99.90;;;;;;5036077;28;20033;-72
2022/04/16 01:51:41;;;;;;;8.60;7.63;;;9.00;99.90;;;;;;5024239;28;20060;-72
2022/04/16 01:54:06;;;;;;;9.32;7.97;;;8.90;99.90;;;;;;5030705;28;20027;-72
2022/04/16 01:56:32;;;;;;;8.55;7.57;;;8.90;99.90;;;;;;5023968;28;20108;-73
2022/04/16 01:58:57;;;;;;;10.40;8.88;;;8.90;99.90;;;;;;5026041;28;20018;-72
2022/04/16 02:01:23;;;;;;;10.63;8.38;;;8.80;99.90;;;;;;5013375;28;20108;-73
2022/04/16 02:03:48;;;;;;;9.43;8.43;;;8.80;99.90;;;;;;5021737;28;20026;-73
2022/04/16 02:06:14;;;;;;;10.45;9.35;;;8.80;99.90;;;;;;5012113;28;20475;-72
2022/04/16 02:08:40;;;;;;;11.23;10.00;;;8.70;99.90;;;;;;5007295;28;20038;-72
2022/04/16 02:11:06;;;;;;;11.38;9.95;;;8.70;99.90;;;;;;5027090;28;20394;-72
2022/04/16 02:13:31;;;;;;;12.70;10.45;;;8.70;99.90;;;;;;5030639;28;20456;-72
2022/04/16 02:15:57;;;;;;;13.32;11.45;;;8.70;99.90;;;;;;5009597;28;20079;-72
2022/04/16 02:18:23;;;;;;;14.80;12.80;;;8.60;99.90;;;;;;5010878;28;20394;-72
2022/04/16 02:20:49;;;;;;;16.77;14.18;;;8.50;99.90;;;;;;5045295;28;20074;-72
2022/04/16 02:23:16;;;;;;;18.83;16.83;;;8.40;99.90;;;;;;5035628;28;20470;-72
2022/04/16 02:25:43;;;;;;;19.70;17.30;;;8.30;99.90;;;;;;5036391;28;20064;-72
2022/04/16 02:28:09;;;;;;;21.52;18.15;;;8.20;99.90;;;;;;5039744;28;20116;-72
2022/04/16 02:30:35;;;;;;;22.33;19.35;;;8.30;99.90;;;;;;5042125;28;20574;-72
2022/04/16 02:33:01;;;;;;;21.75;19.35;;;8.20;99.90;;;;;;5034858;28;20033;-72
2022/04/16 02:35:28;;;;;;;22.30;18.55;;;8.10;99.90;;;;;;5031042;28;20112;-72
2022/04/16 02:37:53;;;;;;;22.85;20.20;;;8.10;99.90;;;;;;5010950;28;20025;-72
2022/04/16 02:40:19;;;;;;;23.95;20.13;;;8.00;99.90;;;;;;5036535;28;20034;-72
2022/04/16 02:42:45;;;;;;;25.05;20.55;;;8.00;99.90;;;;;;5033628;28;20072;-72
2022/04/16 02:48:00;;;;;;;22.50;19.25;;;8.00;99.90;;;;;;5032405;28;20103;-72
2022/04/16 02:50:28;;;;;;;20.33;18.13;;;8.00;99.90;;;;;;5035234;28;20061;-72
2022/04/16 02:52:55;;;;;;;21.83;18.63;;;8.00;99.90;;;;;;5036993;28;20025;-72
2022/04/16 02:55:21;;;;;;;19.15;16.92;;;7.90;99.90;;;;;;5028097;28;20029;-72
2022/04/16 02:57:49;;;;;;;19.38;16.83;;;7.90;99.90;;;;;;5037893;28;20026;-72
2022/04/16 03:00:15;;;;;;;21.77;17.98;;;7.80;99.90;;;;;;5035008;28;20100;-72
2022/04/16 03:02:41;;;;;;;20.25;16.95;;;7.70;99.90;;;;;;5013576;28;20045;-71
2022/04/16 03:05:08;;;;;;;19.75;16.52;;;7.70;99.90;;;;;;5017303;28;20075;-72
2022/04/16 03:07:34;;;;;;;19.33;16.55;;;7.60;99.90;;;;;;5035147;28;20421;-72
2022/04/16 03:10:00;;;;;;;20.60;15.90;;;7.50;99.90;;;;;;5026269;28;20025;-72
2022/04/16 03:12:25;;;;;;;20.48;16.63;;;7.50;99.90;;;;;;5024096;28;20500;-72
2022/04/16 03:17:35;;;;;;;21.23;17.08;;;7.70;99.90;;;;;;5039636;28;20087;-73
2022/04/16 03:20:04;;;;;;;19.65;16.90;;;7.70;99.90;;;;;;5042977;28;20017;-72
2022/04/16 03:22:33;;;;;;;23.60;19.08;;;7.60;99.90;;;;;;5046275;28;20059;-72
2022/04/16 03:25:09;;;;;;;21.33;18.48;;;7.50;99.90;;;;;;5026826;28;20029;-72
2022/04/16 03:27:37;;;;;;;24.13;19.88;;;7.50;99.90;;;;;;5034314;28;20025;-73
2022/04/16 03:30:03;;;;;;;25.45;20.73;;;7.30;99.90;;;;;;5031545;28;20026;-72
2022/04/16 03:32:30;;;;;;;25.75;20.38;;;7.20;99.90;;;;;;5051342;28;20033;-72
2022/04/16 03:34:56;;;;;;;27.40;21.85;;;7.30;99.90;;;;;;5026377;28;20380;-72
2022/04/16 03:37:24;;;;;;;27.90;21.83;;;7.20;99.90;;;;;;5010376;28;20091;-72
2022/04/16 03:39:50;;;;;;;27.30;22.10;;;7.20;99.90;;;;;;5006028;28;20033;-72
2022/04/16 03:42:18;;;;;;;28.02;22.10;;;7.30;99.90;;;;;;5021159;28;20053;-71
2022/04/16 03:44:43;;;;;;;28.83;23.23;;;7.20;99.90;;;;;;5044236;28;20025;-72
2022/04/16 03:47:10;;;;;;;29.65;23.70;;;7.20;99.90;;;;;;5019107;28;20037;-72
2022/04/16 03:49:36;;;;;;;29.38;23.98;;;7.30;99.90;;;;;;5024617;28;20021;-72
2022/04/16 03:52:02;;;;;;;29.08;22.88;;;7.20;99.90;;;;;;5041314;28;20128;-71
2022/04/16 03:59:59;;;;;;;27.00;23.00;;;7.10;99.90;;;;;;5031829;28;20606;-72
2022/04/16 04:02:24;;;;;;;27.95;21.52;;;7.00;99.90;;;;;;5042048;28;20036;-72
2022/04/16 04:04:50;;;;;;;25.42;20.85;;;7.10;99.90;;;;;;5035740;28;20033;-71
2022/04/16 04:07:16;;;;;;;23.25;18.35;;;7.10;99.90;;;;;;5008405;28;20078;-72
2022/04/16 04:09:43;;;;;;;19.75;16.25;;;7.20;99.90;;;;;;5044862;28;20104;-71
2022/04/16 04:12:12;;;;;;;19.77;16.08;;;7.00;99.90;;;;;;5024599;28;20018;-71
2022/04/16 04:14:39;;;;;;;19.13;16.13;;;7.00;99.90;;;;;;5044544;28;20491;-71
2022/04/16 04:17:07;;;;;;;20.67;15.95;;;6.90;99.90;;;;;;5036262;28;20083;-71
2022/04/16 04:19:36;;;;;;;18.70;15.18;;;7.00;99.90;;;;;;5046258;28;20024;-71
2022/04/16 04:22:06;;;;;;;20.00;15.38;;;7.00;99.90;;;;;;4996146;28;20557;-71
2022/04/16 04:24:32;;;;;;;18.50;15.05;;;6.90;99.90;;;;;;5035504;28;20064;-71
2022/04/16 04:26:59;;;;;;;20.00;16.17;;;7.00;99.90;;;;;;5027491;28;20057;-71
2022/04/16 04:29:25;;;;;;;19.60;16.08;;;7.00;99.90;;;;;;5025856;28;20358;-71
2022/04/16 04:31:51;;;;;;;19.05;15.50;;;7.00;99.90;;;;;;4995903;28;20030;-71
2022/04/16 04:34:16;;;;;;;19.58;16.20;;;6.90;99.90;;;;;;5027084;28;20076;-71
2022/04/16 04:36:42;;;;;;;20.85;17.73;;;6.90;99.90;;;;;;5006085;28;20018;-71
2022/04/16 04:39:07;;;;;;;20.42;17.13;;;7.00;99.90;;;;;;5020316;28;20032;-72
2022/04/16 04:41:33;;;;;;;21.90;16.90;;;7.00;99.90;;;;;;5005754;28;20026;-72
2022/04/16 04:43:58;;;;;;;21.00;16.77;;;7.00;99.90;;;;;;5009233;28;20081;-71
2022/04/16 04:46:24;;;;;;;18.35;15.50;;;7.00;99.90;;;;;;5022858;28;20033;-72
2022/04/16 04:48:49;;;;;;;21.20;17.60;;;7.00;99.90;;;;;;5041457;28;20108;-72
2022/04/16 04:51:15;;;;;;;22.95;17.70;;;6.90;99.90;;;;;;5034129;28;20116;-71
2022/04/16 04:53:40;;;;;;;21.33;16.95;;;6.90;99.90;;;;;;5020010;28;20545;-72
2022/04/16 04:56:06;;;;;;;21.52;16.75;;;6.90;99.90;;;;;;5015389;28;20113;-72
2022/04/16 04:58:31;;;;;;;19.35;15.93;;;6.80;99.90;;;;;;5019914;28;20022;-71
2022/04/16 05:00:57;;;;;;;21.42;16.80;;;6.80;99.90;;;;;;5005670;28;20026;-71
2022/04/16 05:03:23;;;;;;;20.48;16.02;;;6.90;99.90;;;;;;5029397;28;20030;-72
2022/04/16 05:05:49;;;;;;;18.23;15.57;;;6.90;99.90;;;;;;5005610;28;20127;-72
2022/04/16 05:08:14;;;;;;;19.73;15.70;;;6.90;99.90;;;;;;5019702;28;20108;-70
2022/04/16 05:10:40;;;;;;;18.42;15.13;;;7.00;99.90;;;;;;5032024;28;20045;-72
2022/04/16 05:13:05;;;;;;;18.52;15.13;;;7.00;99.90;;;;;;5019550;28;20621;-72
2022/04/16 05:15:31;;;;;;;19.50;15.18;;;7.00;99.90;;;;;;5023033;28;20026;-71
2022/04/16 05:17:57;;;;;;;16.92;14.00;;;7.00;99.90;;;;;;5016025;28;20021;-72
2022/04/16 05:20:22;;;;;;;17.08;13.05;;;7.00;99.90;;;;;;5022766;28;20025;-72
2022/04/16 05:22:48;;;;;;;16.17;13.77;;;7.00;99.90;;;;;;5026160;28;20076;-72
2022/04/16 05:25:14;;;;;;;16.65;13.20;;;7.10;99.90;;;;;;5022805;28;20018;-72
2022/04/16 05:27:39;;;;;;;16.55;13.43;;;7.10;99.90;;;;;;5019220;28;20093;-71
2022/04/16 05:30:21;;;;;;;16.50;13.00;;;7.10;99.90;;;;;;5022975;28;20029;-71
2022/04/16 05:32:49;;;;;;;15.45;12.95;;;7.00;99.90;;;;;;5013286;28;20029;-71
2022/04/16 05:35:15;;;;;;;16.75;12.55;;;6.70;99.90;;;;;;5033713;28;20071;-71
2022/04/16 05:37:41;;;;;;;17.52;13.55;;;6.80;99.90;;;;;;5010671;28;20026;-71
2022/04/16 05:40:08;;;;;;;15.70;12.60;;;6.80;99.90;;;;;;5022085;28;20025;-71
2022/04/16 05:42:42;;;;;;;16.17;13.00;;;6.70;99.90;;;;;;5027749;28;20042;-71
2022/04/16 05:45:08;;;;;;;16.40;13.45;;;6.80;99.90;;;;;;5007822;28;20140;-71
2022/04/16 05:47:34;;;;;;;14.73;12.75;;;6.70;99.90;;;;;;5028009;28;20029;-71
2022/04/16 05:49:59;;;;;;;15.23;12.35;;;6.70;99.90;;;;;;5012514;28;20084;-71
2022/04/16 05:52:25;;;;;;;16.35;13.10;;;6.80;99.90;;;;;;5007725;28;20030;-71
2022/04/16 05:54:51;;;;;;;16.98;13.82;;;6.80;99.90;;;;;;5025177;28;20112;-71
2022/04/16 05:57:17;;;;;;;15.10;12.77;;;6.80;99.90;;;;;;5018714;28;20472;-71
2022/04/16 05:59:43;;;;;;;17.05;12.90;;;6.80;99.90;;;;;;5019129;28;20101;-72
2022/04/16 06:02:11;;;;;;;15.88;12.70;;;6.70;99.90;;;;;;5007401;28;20022;-71
2022/04/16 06:04:37;;;;;;;15.70;12.50;;;6.60;99.90;;;;;;5027131;28;20071;-71
2022/04/16 06:07:03;;;;;;;14.68;11.80;;;6.60;99.90;;;;;;5034091;28;20483;-72
2022/04/16 06:09:28;;;;;;;15.25;11.43;;;6.50;99.90;;;;;;5051753;28;20419;-71
2022/04/16 06:12:03;;;;;;;14.38;10.68;;;6.50;99.90;;;;;;5025389;28;20034;-71
2022/04/16 06:14:30;;;;;;;13.68;10.95;;;6.50;99.90;;;;;;5007426;28;20026;-71
2022/04/16 06:16:56;;;;;;;12.35;10.88;;;6.50;99.90;;;;;;5019594;28;20092;-71
2022/04/16 06:19:22;;;;;;;13.60;11.38;;;6.50;99.90;;;;;;5046130;28;20028;-71
2022/04/16 06:21:47;;;;;;;13.25;10.77;;;6.50;99.90;;;;;;5019472;28;20037;-71
2022/04/16 06:24:13;;;;;;;11.85;10.23;;;6.30;99.90;;;;;;5017482;28;20109;-71
2022/04/16 06:26:38;;;;;;;11.32;9.50;;;6.50;99.90;;;;;;5019179;28;20034;-71
2022/04/16 06:29:04;;;;;;;12.48;10.05;;;6.60;99.90;;;;;;5000138;28;20523;-71
2022/04/16 06:31:29;;;;;;;10.60;9.50;;;6.70;99.90;;;;;;5018701;28;20071;-71
2022/04/16 06:33:55;;;;;;;11.73;10.07;;;6.60;99.90;;;;;;5018372;28;20387;-71
2022/04/16 06:36:20;;;;;;;13.50;10.68;;;6.60;99.90;;;;;;5024303;28;20034;-71
2022/04/16 06:38:45;;;;;;;12.05;10.68;;;6.40;99.90;;;;;;5008044;28;20735;-71
2022/04/16 06:41:11;;;;;;;12.55;10.70;;;6.40;99.90;;;;;;5023930;28;20503;-71
2022/04/16 06:43:37;;;;;;;12.63;10.80;;;6.30;99.90;;;;;;5024838;28;20030;-71
2022/04/16 06:46:03;;;;;;;14.57;12.25;;;6.40;99.90;;;;;;5011835;28;20050;-71
2022/04/16 06:48:29;;;;;;;14.15;12.13;;;6.30;99.90;;;;;;5008076;28;20445;-71
2022/04/16 06:50:54;;;;;;;13.75;12.15;;;6.20;99.90;;;;;;5030768;28;20026;-71
2022/04/16 06:53:20;;;;;;;16.52;13.55;;;6.20;99.90;;;;;;4998922;28;20030;-71
2022/04/16 06:55:45;;;;;;;15.98;13.55;;;6.20;99.90;;;;;;5042006;28;20072;-72
2022/04/16 06:58:11;;;;;;;15.45;13.85;;;6.00;99.90;;;;;;5034591;28;20028;-72
2022/04/16 07:00:36;;;;;;;18.92;14.77;;;6.10;99.90;;;;;;4993856;28;20022;-71
2022/04/16 07:03:02;;;;;;;14.68;13.18;;;6.10;99.90;;;;;;5008252;28;20026;-71
2022/04/16 07:05:27;;;;;;;14.23;12.05;;;6.00;99.90;;;;;;5023662;28;20028;-71
2022/04/16 07:07:53;;;;;;;12.40;10.90;;;6.00;99.90;;;;;;5008020;28;20770;-71
2022/04/16 07:10:18;;;;;;;11.63;10.27;;;6.20;99.90;;;;;;5031016;28;20112;-71
2022/04/16 07:12:44;;;;;;;10.68;9.57;;;6.40;99.90;;;;;;5017890;28;20037;-71
2022/04/16 07:15:10;;;;;;;10.88;9.57;;;6.40;99.90;;;;;;5023931;28;20392;-71
2022/04/16 07:17:35;;;;;;;11.50;9.95;;;6.20;99.90;;;;;;5024666;28;20045;-71
2022/04/16 07:20:01;;;;;;;11.40;9.48;;;6.50;99.90;;;;;;5004744;28;20061;-71
2022/04/16 07:22:26;;;;;;;11.13;9.77;;;6.60;99.90;;;;;;5048725;28;20040;-71
2022/04/16 07:24:52;;;;;;;13.25;10.50;;;6.40;99.90;;;;;;5023724;28;20026;-71
2022/04/16 07:27:17;;;;;;;10.82;9.73;;;6.30;99.90;;;;;;5025319;28;20052;-71
2022/04/16 07:29:43;;;;;;;11.45;10.23;;;6.50;99.90;;;;;;5023813;28;20057;-71
2022/04/16 07:32:08;;;;;;;12.20;9.98;;;6.60;99.90;;;;;;5025223;28;20064;-71
2022/04/16 07:34:34;;;;;;;10.50;9.50;;;6.70;99.90;;;;;;5027444;28;20500;-71
2022/04/16 07:36:59;;;;;;;10.90;9.73;;;6.80;99.90;;;;;;5018357;28;20096;-71
2022/04/16 07:39:25;;;;;;;11.52;9.07;;;7.00;99.90;;;;;;5027760;28;20026;-71
2022/04/16 07:41:51;;;;;;;12.30;10.65;;;7.10;99.90;;;;;;5023373;28;20423;-72
2022/04/16 07:44:17;;;;;;;9.15;8.25;;;7.10;99.90;;;;;;5028000;28;20147;-71
2022/04/16 07:46:43;;;;;;;8.13;7.07;;;7.20;99.90;;;;;;5018765;28;20033;-71
2022/04/16 07:49:08;;;;;;;7.75;6.90;;;6.90;99.90;;;;;;5025171;28;20037;-71
2022/04/16 07:51:34;;;;;;;8.23;5.88;;;6.80;99.90;;;;;;5034098;28;20036;-71
2022/04/16 07:53:59;;;;;;;7.20;6.50;;;6.80;99.90;;;;;;5016798;28;20107;-71
2022/04/16 07:56:26;;;;;;;6.28;5.68;;;6.90;99.90;;;;;;5010027;28;20037;-71
2022/04/16 07:58:53;;;;;;;6.78;6.03;;;7.10;99.90;;;;;;5025165;28;20194;-71
2022/04/16 08:01:19;;;;;;;7.03;5.65;;;7.10;99.90;;;;;;5020542;28;20026;-71
2022/04/16 08:03:45;;;;;;;6.50;5.82;;;7.10;99.90;;;;;;5027782;28;20021;-72
2022/04/16 08:06:10;;;;;;;6.15;5.50;;;7.20;99.90;;;;;;5029365;28;20117;-71
2022/04/16 08:08:36;;;;;;;6.18;5.38;;;7.20;99.90;;;;;;5004782;28;20050;-71
2022/04/16 08:11:01;;;;;;;5.40;4.80;;;6.90;99.90;;;;;;5026840;28;20034;-71
2022/04/16 08:13:27;;;;;;;5.60;5.10;;;7.10;99.90;;;;;;5029188;28;20558;-71
2022/04/16 08:15:52;;;;;;;6.15;4.93;;;7.20;99.90;;;;;;5029827;28;20029;-71
2022/04/16 08:18:18;;;;;;;5.18;4.68;;;7.30;99.90;;;;;;5020568;28;20054;-71
2022/04/16 08:20:44;;;;;;;5.32;4.60;;;7.30;99.90;;;;;;5042945;28;20467;-71
2022/04/16 08:23:10;;;;;;;6.18;4.68;;;7.20;99.90;;;;;;5022074;28;20021;-71
2022/04/16 08:28:06;;;;;;;5.45;4.90;;;7.30;99.90;;;;;;5020524;28;20502;-71
2022/04/16 08:30:31;;;;;;;5.30;4.85;;;7.40;99.90;;;;;;5028473;28;20033;-71
2022/04/16 08:32:57;;;;;;;5.60;4.97;;;7.50;99.90;;;;;;5033465;28;20406;-72
2022/04/16 08:35:23;;;;;;;6.10;5.55;;;7.60;99.90;;;;;;5021463;28;20379;-71
2022/04/16 08:37:49;;;;;;;6.20;5.47;;;7.70;99.90;;;;;;5027017;28;20022;-71
2022/04/16 08:40:17;;;;;;;5.88;5.28;;;7.60;99.90;;;;;;5025670;28;20443;-72
2022/04/16 08:42:44;;;;;;;5.68;5.13;;;7.60;99.90;;;;;;5020016;28;20024;-71
2022/04/16 08:45:12;;;;;;;5.68;5.18;;;7.70;99.90;;;;;;5020130;28;20036;-71
2022/04/16 08:47:38;;;;;;;6.80;5.63;;;7.80;99.90;;;;;;5026677;28;20522;-71
2022/04/16 08:50:06;;;;;;;6.22;5.63;;;7.90;99.90;;;;;;5026764;28;20060;-71
2022/04/16 08:52:34;;;;;;;6.72;5.95;;;7.90;99.90;;;;;;5020722;28;20024;-71
2022/04/16 08:55:02;;;;;;;5.55;5.00;;;8.00;99.90;;;;;;5036670;28;20040;-71
2022/04/16 08:57:28;;;;;;;5.88;5.38;;;8.00;99.90;;;;;;5032995;28;20056;-71
2022/04/16 08:59:55;;;;;;;6.10;5.22;;;8.10;99.90;;;;;;5042860;28;20051;-71
2022/04/16 09:02:22;;;;;;;5.40;4.70;;;8.10;99.90;;;;;;5033727;28;20067;-71
2022/04/16 09:04:49;;;;;;;4.50;4.10;;;8.40;99.90;;;;;;5044030;28;20021;-71
2022/04/16 09:07:15;;;;;;;6.18;5.15;;;8.20;99.90;;;;;;5019378;28;20029;-72
2022/04/16 09:09:41;;;;;;;6.43;4.43;;;8.20;99.90;;;;;;5019440;28;20037;-71
2022/04/16 09:12:20;;;;;;;4.85;4.45;;;8.20;99.90;;;;;;5032987;28;20399;-71
2022/04/16 09:14:46;;;;;;;5.00;4.57;;;8.30;99.90;;;;;;5014859;28;20377;-71
2022/04/16 09:17:18;;;;;;;4.85;4.45;;;8.60;99.90;;;;;;5022561;28;20036;-71
2022/04/16 09:19:54;;;;;;;5.05;4.60;;;8.50;99.90;;;;;;5028678;28;20101;-71
2022/04/16 09:22:32;;;;;;;5.35;4.25;;;8.50;99.90;;;;;;5024567;28;20056;-71
2022/04/16 09:24:58;;;;;;;5.43;4.93;;;8.50;99.90;;;;;;5025817;28;20041;-71
2022/04/16 09:27:24;;;;;;;4.35;3.95;;;8.50;99.90;;;;;;5025936;28;20026;-71
2022/04/16 09:29:50;;;;;;;4.93;4.10;;;8.60;99.90;;;;;;5032648;28;20494;-71
2022/04/16 09:32:24;;;;;;;5.65;3.75;;;8.60;99.90;;;;;;5042614;22;20033;-74
2022/04/16 09:34:50;;;;;;;4.25;3.85;;;8.60;99.90;;;;;;4978345;28;20484;-73
2022/04/16 09:37:15;;;;;;;4.55;3.90;;;8.70;99.90;;;;;;4992886;28;20070;-74
2022/04/16 09:39:41;;;;;;;5.53;3.67;;;8.60;99.90;;;;;;4993104;28;20033;-73
2022/04/16 09:42:06;;;;;;;4.32;3.42;;;8.70;99.90;;;;;;4979754;28;20034;-73
2022/04/16 09:44:32;;;;;;;5.28;4.07;;;8.80;99.90;;;;;;4986994;28;20511;-74
2022/04/16 09:46:58;;;;;;;3.97;3.67;;;8.80;99.90;;;;;;4992837;28;20022;-74
2022/04/16 09:49:25;;;;;;;4.10;3.80;;;8.80;99.90;;;;;;4996259;28;20037;-74
2022/04/16 09:51:51;;;;;;;4.35;3.92;;;9.00;99.90;;;;;;4999927;28;20025;-75
2022/04/16 09:54:18;;;;;;;5.35;4.00;;;9.00;99.90;;;;;;5009038;28;20376;-74
2022/04/16 09:56:46;;;;;;;3.70;3.28;;;8.80;99.90;;;;;;4996966;28;20510;-74
2022/04/16 09:59:13;;;;;;;4.10;3.70;;;8.90;99.90;;;;;;4992774;28;20476;-74
2022/04/16 10:01:47;;;;;;;3.58;3.28;;;8.90;99.90;;;;;;4980598;28;20025;-74
2022/04/16 10:04:15;;;;;;;3.45;3.15;;;8.90;99.90;;;;;;5001607;28;20022;-75
2022/04/16 10:06:41;;;;;;;4.10;3.30;;;9.10;99.90;;;;;;4995341;28;20026;-75
2022/04/16 10:09:13;;;;;;;3.22;3.00;;;9.20;99.90;;;;;;5002296;28;20122;-75
2022/04/16 10:14:38;;;;;;;3.38;3.08;;;9.30;99.90;;;;;;4986661;28;20502;-73
2022/04/16 10:17:22;;;;;;;5.03;3.80;;;9.30;99.90;;;;;;4998994;28;20038;-75
2022/04/16 10:19:48;;;;;;;4.03;3.63;;;9.30;99.90;;;;;;4978813;28;20038;-75
2022/04/16 10:22:26;;;;;;;5.93;3.55;;;9.10;99.90;;;;;;4974450;28;20011;-75
2022/04/16 10:24:56;;;;;;;3.78;3.47;;;9.10;99.90;;;;;;4992197;28;20027;-75
2022/04/16 10:27:24;;;;;;;3.75;3.45;;;9.30;99.90;;;;;;4992272;28;20022;-74
2022/04/16 10:29:51;;;;;;;3.55;3.25;;;9.30;99.90;;;;;;4992321;28;20030;-75
2022/04/16 10:32:17;;;;;;;4.07;3.67;;;9.60;99.90;;;;;;4993483;28;20026;-74
2022/04/16 10:34:43;;;;;;;4.28;3.88;;;9.60;99.90;;;;;;4998807;28;20106;-73
2022/04/16 10:37:20;;;;;;;4.47;3.38;;;9.50;99.90;;;;;;4998168;28;20045;-73
2022/04/16 10:39:47;;;;;;;3.88;3.58;;;9.60;99.90;;;;;;5003774;28;20141;-73
2022/04/16 10:42:13;;;;;;;3.50;3.20;;;9.90;99.90;;;;;;4983087;28;20652;-73
2022/04/16 10:44:48;;;;;;;3.88;3.40;;;10.20;99.90;;;;;;4992988;28;20030;-73
2022/04/16 10:47:14;;;;;;;4.18;3.78;;;10.00;99.90;;;;;;4977467;28;20121;-74
2022/04/16 10:49:41;;;;;;;4.38;3.97;;;10.20;99.90;;;;;;5011997;28;20527;-73
2022/04/16 10:52:21;;;;;;;4.60;3.45;;;9.60;99.00;;;;;;5011892;28;20397;-74
2022/04/16 10:54:47;;;;;;;5.10;4.13;;;9.70;99.60;;;;;;4997260;28;20026;-73
2022/04/16 10:57:21;;;;;;;3.97;3.63;;;9.70;99.70;;;;;;5005313;28;20026;-73
2022/04/16 10:59:46;;;;;;;3.70;3.40;;;9.60;99.70;;;;;;5005802;28;20018;-73
2022/04/16 11:02:19;;;;;;;4.20;3.80;;;10.10;99.90;;;;;;5011547;28;20029;-73
2022/04/16 11:04:55;;;;;;;4.45;3.88;;;10.00;99.90;;;;;;4992986;28;20113;-73
2022/04/16 11:07:25;;;;;;;4.88;3.90;;;9.80;99.90;;;;;;5002218;28;20653;-73
2022/04/16 11:09:51;;;;;;;3.60;3.30;;;9.80;99.90;;;;;;5002389;28;20030;-72
2022/04/16 11:12:20;;;;;;;4.72;4.22;;;10.20;99.60;;;;;;5005523;28;20033;-74
2022/04/16 11:14:49;;;;;;;4.43;4.03;;;10.50;99.90;;;;;;4995700;28;20034;-74
2022/04/16 11:17:14;;;;;;;4.40;4.00;;;10.60;99.90;;;;;;4995594;28;20511;-74
2022/04/16 11:19:40;;;;;;;4.00;3.55;;;10.50;99.90;;;;;;4995565;28;20030;-74
2022/04/16 11:22:06;;;;;;;3.75;3.00;;;10.90;99.90;;;;;;4977836;28;20044;-74
2022/04/16 11:24:31;;;;;;;3.72;2.50;;;11.20;99.90;;;;;;4980018;28;20042;-74
2022/04/16 11:35:23;;;;;;;2.75;2.10;;;10.90;96.60;;;;;;5003343;28;20080;-73
2022/04/16 11:37:53;;;;;;;2.50;2.00;;;10.90;97.10;;;;;;4995215;28;20026;-74
2022/04/16 11:40:19;;;;;;;2.22;1.88;;;10.90;96.60;;;;;;4994924;28;20029;-74
2022/04/16 11:42:45;;;;;;;4.35;2.58;;;10.90;96.90;;;;;;5008208;28;20027;-73
2022/04/16 11:45:11;;;;;;;4.13;2.30;;;11.30;97.00;;;;;;5008413;28;20100;-73
2022/04/16 11:47:37;;;;;;;2.10;1.90;;;11.30;96.20;;;;;;5014892;28;20483;-73
2022/04/16 11:50:06;;;;;;;2.55;2.00;;;11.10;96.70;;;;;;4984041;28;20030;-73
2022/04/16 11:52:34;;;;;;;2.33;1.80;;;11.30;97.30;;;;;;5007114;28;20022;-73
2022/04/16 11:55:00;;;;;;;2.58;1.70;;;11.10;96.30;;;;;;4980433;28;20110;-72
2022/04/16 11:57:26;;;;;;;1.65;1.55;;;11.30;94.80;;;;;;4995446;28;20483;-74
2022/04/16 12:00:06;;;;;;;3.72;1.65;;;11.30;93.30;;;;;;5000289;28;20045;-73
2022/04/16 12:02:34;;;;;;;2.78;2.00;;;11.40;95.30;;;;;;4997995;28;20113;-74
2022/04/16 12:05:07;;;;;;;2.53;1.98;;;11.90;93.40;;;;;;4995114;28;20011;-74
2022/04/16 12:07:33;;;;;;;2.05;1.60;;;11.90;92.40;;;;;;5003338;28;20030;-74
2022/04/16 12:10:02;;;;;;;3.42;1.90;;;11.60;93.10;;;;;;5000299;28;20032;-72
2022/04/16 12:12:28;;;;;;;2.83;1.65;;;12.20;94.70;;;;;;5003330;28;20038;-73
2022/04/16 12:14:54;;;;;;;1.85;1.40;;;12.60;92.70;;;;;;5011296;28;20033;-74
2022/04/16 12:17:26;;;;;;;3.53;1.73;;;12.90;92.20;;;;;;5003670;28;20026;-75
2022/04/16 12:20:05;;;;;;;1.77;1.67;;;13.00;92.50;;;;;;4984900;28;20388;-72
2022/04/16 12:22:33;;;;;;;1.85;1.70;;;12.60;91.90;;;;;;4983289;28;20026;-74
2022/04/16 12:25:11;;;;;;;1.48;1.35;;;12.90;92.30;;;;;;4983365;28;20535;-74
2022/04/16 12:27:46;;;;;;;4.68;1.90;;;13.20;91.40;;;;;;5000973;28;20555;-73
2022/04/16 12:30:20;;;;;;;2.15;1.60;;;12.90;90.00;;;;;;5010541;28;20025;-73
2022/04/16 12:32:55;;;;;;;1.92;1.40;;;12.60;91.30;;;;;;5001390;28;20031;-73
2022/04/16 12:35:21;;;;;;;2.45;1.77;;;13.00;91.50;;;;;;4986680;28;20022;-73
2022/04/16 12:37:46;;;;;;;1.95;1.50;;;12.90;88.90;;;;;;5007288;28;20053;-73
2022/04/16 12:40:12;;;;;;;2.30;1.48;;;13.60;90.20;;;;;;5005943;28;20038;-72
2022/04/16 12:42:37;;;;;;;3.05;1.60;;;14.30;89.70;;;;;;4995178;28;20029;-74
2022/04/16 12:45:03;;;;;;;1.65;1.50;;;14.70;87.20;;;;;;4996155;28;20034;-73
2022/04/16 12:47:29;;;;;;;2.95;1.73;;;14.10;86.70;;;;;;4987421;28;20032;-73
2022/04/16 12:49:54;;;;;;;3.28;1.33;;;14.60;90.10;;;;;;4994099;28;20466;-75
2022/04/16 12:52:20;;;;;;;1.30;1.20;;;15.20;82.60;;;;;;5006956;28;20043;-72
2022/04/16 12:54:45;;;;;;;3.10;1.15;;;15.40;81.70;;;;;;5006172;28;20100;-73
2022/04/16 12:57:11;;;;;;;1.85;1.30;;;15.60;81.90;;;;;;5000615;28;20124;-74
2022/04/16 12:59:36;;;;;;;2.33;1.60;;;15.90;84.10;;;;;;5013324;28;20026;-74
2022/04/16 13:02:02;;;;;;;2.45;1.45;;;15.60;81.50;;;;;;4999061;28;20030;-72
2022/04/16 13:04:29;;;;;;;1.90;1.20;;;15.10;77.20;;;;;;5005032;28;20006;-74
2022/04/16 13:06:55;;;;;;;3.45;1.70;;;16.40;81.30;;;;;;5013328;28;20033;-73
2022/04/16 13:09:20;;;;;;;1.95;1.40;;;16.30;79.20;;;;;;5000856;28;20572;-70
2022/04/16 13:11:46;;;;;;;2.42;1.58;;;16.40;80.10;;;;;;5006786;28;20035;-71